Pride Of Rotterdam — PBAJ — position and weather

sailwx.info

Track history (hours):
 
Tides and Currents Weather Stations Pressure Air Temp Water Temp Dewpoint Dewpoint Depression Visibility Wind Speed Wind Dir Waves Ship Positions

Pride Of Rotterdam

Operator: P&O Ferries

Last reported at 2017-Apr-30 14:29 UTC. Time now 2017-Apr-30 14:49 UTC.
Position N 53°44' W 000°17'.

Length 215 m; draft 5.8 m.

Type: Ship. MMSI: 244980000.

Date/timePositionNaut miles runAvg speedWind from/ knotsBaromVisibWave heightAir tempDewpointWater temp
2017-Apr-30 14:29N 53°44' W 000°17'0 0.0
2017-Apr-30 13:29N 53°44' W 000°17'0 0.0
2017-Apr-30 12:58N 53°44' W 000°17'0 0.0
2017-Apr-30 12:28N 53°44' W 000°17'0 0.0
2017-Apr-30 11:58N 53°44' W 000°17'0 0.0
2017-Apr-30 11:28N 53°44' W 000°17'0 0.0
2017-Apr-30 11:01N 53°44' W 000°17'0 0.0
2017-Apr-30 10:30N 53°44' W 000°17'0 0.0
2017-Apr-30 10:00N 53°44' W 000°17'0 0.0
2017-Apr-30 09:30N 53°44' W 000°17'0 0.0
2017-Apr-30 09:00N 53°44' W 000°17'0 0.0
2017-Apr-30 08:29N 53°44' W 000°17'0 0.0
2017-Apr-30 07:59N 53°44' W 000°17'0 0.0
2017-Apr-30 07:29N 53°44' W 000°17'0 0.0
2017-Apr-30 06:59N 53°44' W 000°17'0 0.0
2017-Apr-30 06:30N 53°44' W 000°17'3 6.7
2017-Apr-30 06:00N 53°42' W 000°14'815.2
2017-Apr-30 05:30N 53°36' W 000°04'917.3
2017-Apr-30 05:00N 53°33' E 000°09'2716.3
2017-Apr-30 03:21N 53°23' E 000°51'618.2
2017-Apr-30 03:00N 53°20' E 001°00'918.4
2017-Apr-30 02:30N 53°14' E 001°12'917.7
2017-Apr-30 02:00N 53°06' E 001°20'917.3
2017-Apr-30 01:30N 52°60' E 001°30'816.9
2017-Apr-30 01:00N 52°54' E 001°39'816.1
2017-Apr-30 00:30N 52°49' E 001°51'715.0
2017-Apr-30 00:00N 52°45' E 002°01'714.7
2017-Apr-29 23:30N 52°41' E 002°11'5915.4
2017-Apr-29 19:42N 52°09' E 003°31'316.0
2017-Apr-29 19:30N 52°07' E 003°35'713.9
2017-Apr-29 19:01N 52°04' E 003°46'713.3
2017-Apr-29 18:30N 52°02' E 003°56'815.6
2017-Apr-29 18:00N 51°58' E 004°07'2 3.1
2017-Apr-29 17:30N 51°57' E 004°08'0 0.0
2017-Apr-29 16:57N 51°57' E 004°08'0 0.0
2017-Apr-29 16:21N 51°57' E 004°08'0 0.0
2017-Apr-29 15:57N 51°57' E 004°08'0 0.0
2017-Apr-29 15:26N 51°57' E 004°08'0 0.0
2017-Apr-29 15:00N 51°57' E 004°08'0 0.0
2017-Apr-29 13:59N 51°57' E 004°08'0 0.0
2017-Apr-29 13:29N 51°57' E 004°08'0 0.0
2017-Apr-29 12:55N 51°57' E 004°08'0 0.0
2017-Apr-29 12:28N 51°57' E 004°08'0 0.0
2017-Apr-29 12:00N 51°57' E 004°08'0 0.0
2017-Apr-29 11:30N 51°57' E 004°08'0 0.0
2017-Apr-29 11:00N 51°57' E 004°08'0 0.0
2017-Apr-29 10:28N 51°57' E 004°08'0 0.0
2017-Apr-29 10:00N 51°57' E 004°08'0 0.0
2017-Apr-29 09:27N 51°57' E 004°08'0 0.0
2017-Apr-29 08:59N 51°57' E 004°08'0 0.0
2017-Apr-29 08:29N 51°57' E 004°08'0 0.0
2017-Apr-29 07:59N 51°57' E 004°08'0 0.0
2017-Apr-29 07:28N 51°57' E 004°08'0 0.0
2017-Apr-29 07:01N 51°57' E 004°08'4 7.3
2017-Apr-29 06:30N 51°59' E 004°03'918.0
2017-Apr-29 06:00N 52°02' E 003°49'917.7
2017-Apr-29 05:30N 52°05' E 003°36'2617.4
2017-Apr-29 03:59N 52°22' E 003°02'3617.9
2017-Apr-29 01:58N 52°44' E 002°16'918.7
2017-Apr-29 01:30N 52°50' E 002°06'918.6
2017-Apr-29 01:00N 52°56' E 001°54'918.9
2017-Apr-29 00:30N 53°01' E 001°40'1019.1
2017-Apr-29 00:00N 53°07' E 001°28'1019.2
2017-Apr-28 23:28N 53°13' E 001°15'919.2
2017-Apr-28 23:00N 53°19' E 001°02'3418.0
2017-Apr-28 21:06N 53°33' E 000°10'520.5
2017-Apr-28 20:52N 53°35' E 000°03'719.5
2017-Apr-28 20:30N 53°38' W 000°08'815.2
2017-Apr-28 20:00N 53°44' W 000°16'1 1.8
2017-Apr-28 19:30N 53°44' W 000°17'0 0.0
2017-Apr-28 19:00N 53°44' W 000°17'0 0.0
2017-Apr-28 18:29N 53°44' W 000°17'0 0.0
2017-Apr-28 17:59N 53°44' W 000°17'0 0.0
2017-Apr-28 17:29N 53°44' W 000°17'0 0.0
2017-Apr-28 16:59N 53°44' W 000°17'0 0.0
2017-Apr-28 16:28N 53°44' W 000°17'0 0.0
2017-Apr-28 15:58N 53°44' W 000°17'0 0.0
2017-Apr-28 15:28N 53°44' W 000°17'0 0.0
2017-Apr-28 14:58N 53°44' W 000°17'0 0.0
2017-Apr-28 14:00N 53°44' W 000°17'0 0.0
2017-Apr-28 13:30N 53°44' W 000°17'0 0.0
2017-Apr-28 13:00N 53°44' W 000°17'0 0.0
2017-Apr-28 12:30N 53°44' W 000°17'0 0.0
2017-Apr-28 12:00N 53°44' W 000°17'0 0.0
2017-Apr-28 11:29N 53°44' W 000°17'0 0.0
2017-Apr-28 10:59N 53°44' W 000°17'0 0.0
2017-Apr-28 10:29N 53°44' W 000°17'0 0.0
2017-Apr-28 09:59N 53°44' W 000°17'0 0.0
2017-Apr-28 09:29N 53°44' W 000°17'0 0.0
2017-Apr-28 08:58N 53°44' W 000°17'0 0.0
2017-Apr-28 08:28N 53°44' W 000°17'0 0.0
2017-Apr-28 07:55N 53°44' W 000°17'0 0.0
2017-Apr-28 07:28N 53°44' W 000°17'0 0.0
2017-Apr-28 07:00N 53°44' W 000°17'0 0.0
2017-Apr-28 06:30N 53°44' W 000°17'0 0.0
2017-Apr-28 06:00N 53°44' W 000°17'2 3.7
2017-Apr-28 05:30N 53°43' W 000°15'816.3
2017-Apr-28 05:00N 53°37' W 000°06'3916.7
2017-Apr-28 02:41N 53°22' E 000°54'317.3
2017-Apr-28 02:30N 53°20' E 000°59'917.4
2017-Apr-28 02:00N 53°14' E 001°09'1019.3
2017-Apr-28 01:30N 53°06' E 001°19'1020.8
2017-Apr-28 01:00N 52°59' E 001°31'1020.8
2017-Apr-28 00:30N 52°52' E 001°44'1019.9
2017-Apr-28 00:00N 52°47' E 001°58'918.9
2017-Apr-27 23:30N 52°42' E 002°11'6218.5
2017-Apr-27 20:09N 52°07' E 003°36'318.5
2017-Apr-27 20:00N 52°06' E 003°40'918.6
2017-Apr-27 19:30N 52°04' E 003°54'815.4
2017-Apr-27 19:00N 51°59' E 004°04'3 6.5
2017-Apr-27 18:31N 51°57' E 004°08'0 0.2
2017-Apr-27 17:59N 51°57' E 004°08'0 0.0
2017-Apr-27 17:29N 51°57' E 004°08'0 0.0
2017-Apr-27 16:59N 51°57' E 004°08'0 0.0
2017-Apr-27 16:28N 51°57' E 004°08'0 0.0
2017-Apr-27 15:55N 51°57' E 004°08'0 0.0
2017-Apr-27 15:28N 51°57' E 004°08'0 0.0
2017-Apr-27 14:55N 51°57' E 004°08'0 0.0
2017-Apr-27 14:00N 51°57' E 004°08'0 0.0
2017-Apr-27 13:30N 51°57' E 004°08'0 0.0
2017-Apr-27 12:57N 51°57' E 004°08'0 0.0
2017-Apr-27 12:30N 51°57' E 004°08'0 0.0
2017-Apr-27 11:59N 51°57' E 004°08'0 0.0
2017-Apr-27 11:30N 51°57' E 004°08'0 0.0
2017-Apr-27 10:59N 51°57' E 004°08'0 0.0
2017-Apr-27 10:29N 51°57' E 004°08'0 0.0
2017-Apr-27 09:59N 51°57' E 004°08'0 0.0
2017-Apr-27 09:28N 51°57' E 004°08'0 0.0
2017-Apr-27 08:59N 51°57' E 004°08'0 0.0
2017-Apr-27 08:28N 51°57' E 004°08'0 0.0
2017-Apr-27 07:58N 51°57' E 004°08'0 0.0
2017-Apr-27 07:31N 51°57' E 004°08'0 0.0
2017-Apr-27 07:00N 51°57' E 004°08'0 0.0
2017-Apr-27 06:30N 51°57' E 004°08'3 6.1
2017-Apr-27 06:00N 51°59' E 004°04'714.8
2017-Apr-27 05:30N 52°01' E 003°53'1019.0
2017-Apr-27 05:00N 52°05' E 003°39'6818.4
2017-Apr-27 01:20N 52°46' E 002°11'617.1
2017-Apr-27 01:00N 52°50' E 002°05'816.9
2017-Apr-27 00:30N 52°55' E 001°54'917.1
2017-Apr-27 00:00N 53°00' E 001°42'917.7
2017-Apr-26 23:30N 53°06' E 001°30'917.6
2017-Apr-26 23:01N 53°11' E 001°19'1017.6
2017-Apr-26 22:28N 53°17' E 001°06'3517.5
2017-Apr-26 20:28N 53°33' E 000°14'1020.4
2017-Apr-26 20:00N 53°36' W 000°02'918.9
2017-Apr-26 19:30N 53°42' W 000°14'3 6.2
2017-Apr-26 18:58N 53°44' W 000°17'0 0.0
2017-Apr-26 18:31N 53°44' W 000°17'0 0.0
2017-Apr-26 18:00N 53°44' W 000°17'0 0.0
2017-Apr-26 17:30N 53°44' W 000°17'0 0.0
2017-Apr-26 17:00N 53°44' W 000°17'0 0.0
2017-Apr-26 16:30N 53°44' W 000°17'0 0.0
2017-Apr-26 15:59N 53°44' W 000°17'0 0.0
2017-Apr-26 15:29N 53°44' W 000°17'0 0.0
2017-Apr-26 14:59N 53°44' W 000°17'0 0.0
2017-Apr-26 14:29N 53°44' W 000°17'0 0.0
2017-Apr-26 13:28N 53°44' W 000°17'0 0.0
2017-Apr-26 12:58N 53°44' W 000°17'0 0.0
2017-Apr-26 12:28N 53°44' W 000°17'0 0.0
2017-Apr-26 11:58N 53°44' W 000°17'0 0.0
2017-Apr-26 11:30N 53°44' W 000°17'0 0.0
2017-Apr-26 11:00N 53°44' W 000°17'0 0.0
2017-Apr-26 10:30N 53°44' W 000°17'0 0.0
2017-Apr-26 10:00N 53°44' W 000°17'0 0.0
2017-Apr-26 09:30N 53°44' W 000°17'0 0.0
2017-Apr-26 08:59N 53°44' W 000°17'0 0.0
2017-Apr-26 08:29N 53°44' W 000°17'0 0.0
2017-Apr-26 07:59N 53°44' W 000°17'0 0.0
2017-Apr-26 07:29N 53°44' W 000°17'0 0.0
2017-Apr-26 06:59N 53°44' W 000°17'0 0.0
2017-Apr-26 06:28N 53°44' W 000°17'0 0.0
2017-Apr-26 06:01N 53°44' W 000°17'3 6.0
2017-Apr-26 05:30N 53°42' W 000°14'917.7
2017-Apr-26 05:00N 53°36' W 000°03'3917.2
2017-Apr-26 02:45N 53°21' E 000°57'717.2
2017-Apr-26 02:20N 53°16' E 001°06'617.9
2017-Apr-26 02:00N 53°11' E 001°12'1019.5
2017-Apr-26 01:30N 53°04' E 001°22'1020.8
2017-Apr-26 01:00N 52°57' E 001°35'1020.7
2017-Apr-26 00:30N 52°50' E 001°48'1121.1
2017-Apr-26 00:00N 52°44' E 002°03'6919.1
2017-Apr-25 20:23N 52°06' E 003°38'718.4
2017-Apr-25 20:01N 52°05' E 003°49'918.2
2017-Apr-25 19:31N 51°60' E 004°01'5 9.6
2017-Apr-25 18:59N 51°57' E 004°08'0 0.3
2017-Apr-25 18:28N 51°57' E 004°08'0 0.0
2017-Apr-25 17:58N 51°57' E 004°08'0 0.0
2017-Apr-25 17:28N 51°57' E 004°08'0 0.0
2017-Apr-25 16:58N 51°57' E 004°08'0 0.0
2017-Apr-25 16:28N 51°57' E 004°08'0 0.0
2017-Apr-25 16:00N 51°57' E 004°08'0 0.0
2017-Apr-25 15:30N 51°57' E 004°08'0 0.0
2017-Apr-25 15:00N 51°57' E 004°08'0 0.0
2017-Apr-25 14:30N 51°57' E 004°08'0 0.0
2017-Apr-25 13:29N 51°57' E 004°08'0 0.0
2017-Apr-25 12:59N 51°57' E 004°08'0 0.0
2017-Apr-25 12:29N 51°57' E 004°08'0 0.0
2017-Apr-25 11:59N 51°57' E 004°08'0 0.0
2017-Apr-25 11:28N 51°57' E 004°08'0 0.0
2017-Apr-25 10:58N 51°57' E 004°08'0 0.0
2017-Apr-25 10:28N 51°57' E 004°08'0 0.0
2017-Apr-25 10:01N 51°57' E 004°08'0 0.0
2017-Apr-25 09:30N 51°57' E 004°08'0 0.0
2017-Apr-25 09:00N 51°57' E 004°08'0 0.0
2017-Apr-25 08:30N 51°57' E 004°08'0 0.0
2017-Apr-25 08:00N 51°57' E 004°08'0 0.0
2017-Apr-25 07:29N 51°57' E 004°08'0 0.0
2017-Apr-25 07:00N 51°57' E 004°08'0 0.0
2017-Apr-25 06:29N 51°57' E 004°08'2 4.5
2017-Apr-25 06:00N 51°58' E 004°06'917.5
2017-Apr-25 05:30N 52°01' E 003°52'1120.4
2017-Apr-25 04:59N 52°05' E 003°36'6519.4
2017-Apr-25 01:39N 52°45' E 002°13'318.0
2017-Apr-25 01:30N 52°47' E 002°10'917.9
2017-Apr-25 01:00N 52°53' E 001°59'917.7
2017-Apr-25 00:30N 52°58' E 001°47'918.0
2017-Apr-25 00:00N 53°03' E 001°34'918.0
2017-Apr-24 23:30N 53°08' E 001°22'917.5
2017-Apr-24 23:00N 53°14' E 001°11'3916.6
2017-Apr-24 20:39N 53°33' E 000°14'318.1
2017-Apr-24 20:30N 53°33' E 000°09'919.0
2017-Apr-24 20:00N 53°37' W 000°05'714.0
2017-Apr-24 19:30N 53°41' W 000°14'3 6.7
2017-Apr-24 19:00N 53°44' W 000°17'0 0.0
2017-Apr-24 18:29N 53°44' W 000°17'0 0.0
2017-Apr-24 17:59N 53°44' W 000°17'0 0.0
2017-Apr-24 17:29N 53°44' W 000°17'0 0.0
2017-Apr-24 16:59N 53°44' W 000°17'0 0.0
2017-Apr-24 16:29N 53°44' W 000°17'0 0.0
2017-Apr-24 15:58N 53°44' W 000°17'0 0.0
2017-Apr-24 15:28N 53°44' W 000°17'0 0.0
2017-Apr-24 14:58N 53°44' W 000°17'0 0.0
2017-Apr-24 14:28N 53°44' W 000°17'0 0.0
2017-Apr-24 13:30N 53°44' W 000°17'0 0.0
2017-Apr-24 13:00N 53°44' W 000°17'0 0.0
2017-Apr-24 12:30N 53°44' W 000°17'0 0.0
2017-Apr-24 12:00N 53°44' W 000°17'0 0.0
2017-Apr-24 11:29N 53°44' W 000°17'0 0.0
2017-Apr-24 10:59N 53°44' W 000°17'0 0.0
2017-Apr-24 10:26N 53°44' W 000°17'0 0.0
2017-Apr-24 09:59N 53°44' W 000°17'0 0.0
2017-Apr-24 09:28N 53°44' W 000°17'0 0.0
2017-Apr-24 08:58N 53°44' W 000°17'0 0.0
2017-Apr-24 08:28N 53°44' W 000°17'0 0.0
2017-Apr-24 07:58N 53°44' W 000°17'0 0.0
2017-Apr-24 07:28N 53°44' W 000°17'0 0.0
2017-Apr-24 07:00N 53°44' W 000°17'0 0.0
2017-Apr-24 06:30N 53°44' W 000°17'0 0.0
2017-Apr-24 06:00N 53°44' W 000°17'2 3.1
2017-Apr-24 05:30N 53°43' W 000°15'713.6
2017-Apr-24 05:00N 53°38' W 000°08'4016.7
2017-Apr-24 02:37N 53°22' E 000°53'416.8
2017-Apr-24 02:23N 53°20' E 000°59'716.4
2017-Apr-24 01:59N 53°17' E 001°08'817.3
2017-Apr-24 01:30N 53°10' E 001°16'918.0
2017-Apr-24 01:01N 53°02' E 001°24'918.3
2017-Apr-24 00:30N 52°56' E 001°36'1019.2
2017-Apr-24 00:01N 52°50' E 001°48'918.7
2017-Apr-23 23:31N 52°46' E 002°02'918.3
2017-Apr-23 23:00N 52°41' E 002°14'4117.4
2017-Apr-23 20:38N 52°17' E 003°11'217.1
2017-Apr-23 20:30N 52°16' E 003°14'917.3
2017-Apr-23 20:00N 52°11' E 003°25'917.5
2017-Apr-23 19:30N 52°07' E 003°38'917.5
2017-Apr-23 19:00N 52°04' E 003°51'918.5
2017-Apr-23 18:30N 51°59' E 004°04'4 7.0
2017-Apr-23 18:00N 51°57' E 004°08'0 0.0
2017-Apr-23 17:30N 51°57' E 004°08'0 0.0
2017-Apr-23 17:00N 51°57' E 004°08'0 0.0
2017-Apr-23 16:29N 51°57' E 004°08'0 0.0
2017-Apr-23 16:00N 51°57' E 004°08'0 0.0
2017-Apr-23 15:29N 51°57' E 004°08'0 0.0
2017-Apr-23 14:59N 51°57' E 004°08'0 0.0
2017-Apr-23 13:55N 51°57' E 004°08'0 0.0
2017-Apr-23 13:29N 51°57' E 004°08'0 0.0
2017-Apr-23 12:58N 51°57' E 004°08'0 0.0
2017-Apr-23 12:25N 51°57' E 004°08'0 0.0
2017-Apr-23 12:00N 51°57' E 004°08'0 0.0
2017-Apr-23 11:30N 51°57' E 004°08'0 0.0
2017-Apr-23 10:57N 51°57' E 004°08'0 0.0
2017-Apr-23 10:27N 51°57' E 004°08'0 0.0
2017-Apr-23 10:00N 51°57' E 004°08'0 0.0
2017-Apr-23 09:29N 51°57' E 004°08'0 0.0
2017-Apr-23 09:00N 51°57' E 004°08'0 0.0
2017-Apr-23 08:29N 51°57' E 004°08'0 0.0
2017-Apr-23 07:59N 51°57' E 004°08'0 0.0
2017-Apr-23 07:29N 51°57' E 004°08'0 0.0
2017-Apr-23 07:00N 51°57' E 004°08'3 6.4
2017-Apr-23 06:31N 51°59' E 004°04'917.3
2017-Apr-23 06:01N 52°01' E 003°51'917.8
2017-Apr-23 05:30N 52°05' E 003°37'6317.7
2017-Apr-23 01:55N 52°44' E 002°16'716.7
2017-Apr-23 01:30N 52°49' E 002°07'816.3
2017-Apr-23 01:01N 52°54' E 001°57'816.2
2017-Apr-23 00:31N 52°58' E 001°46'816.0
2017-Apr-23 00:01N 53°03' E 001°35'815.9
2017-Apr-22 23:29N 53°09' E 001°25'815.8
2017-Apr-22 23:00N 53°13' E 001°15'4115.2
2017-Apr-22 20:20N 53°33' E 000°15'816.4
2017-Apr-22 19:50N 53°35' E 000°02'616.7
2017-Apr-22 19:30N 53°37' W 000°07'612.2
2017-Apr-22 19:00N 53°42' W 000°14'3 6.3
2017-Apr-22 18:30N 53°44' W 000°17'0 0.0
2017-Apr-22 18:00N 53°44' W 000°17'0 0.0
2017-Apr-22 17:30N 53°44' W 000°17'0 0.0
2017-Apr-22 16:59N 53°44' W 000°17'0 0.0
2017-Apr-22 16:29N 53°44' W 000°17'0 0.0
2017-Apr-22 15:59N 53°44' W 000°17'0 0.0
2017-Apr-22 15:29N 53°44' W 000°17'0 0.0
2017-Apr-22 14:59N 53°44' W 000°17'0 0.0
2017-Apr-22 14:28N 53°44' W 000°17'0 0.0
2017-Apr-22 13:28N 53°44' W 000°17'0 0.0
2017-Apr-22 12:58N 53°44' W 000°17'0 0.0
2017-Apr-22 12:30N 53°44' W 000°17'0 0.0
2017-Apr-22 12:00N 53°44' W 000°17'0 0.0
2017-Apr-22 11:30N 53°44' W 000°17'0 0.0
2017-Apr-22 11:00N 53°44' W 000°17'0 0.0
2017-Apr-22 10:30N 53°44' W 000°17'0 0.0
2017-Apr-22 09:59N 53°44' W 000°17'0 0.0
2017-Apr-22 09:29N 53°44' W 000°17'0 0.0
2017-Apr-22 08:59N 53°44' W 000°17'0 0.0
2017-Apr-22 08:29N 53°44' W 000°17'0 0.0
2017-Apr-22 07:59N 53°44' W 000°17'0 0.0
2017-Apr-22 07:28N 53°44' W 000°17'0 0.0
2017-Apr-22 07:01N 53°44' W 000°17'1 2.5
2017-Apr-22 06:30N 53°44' W 000°15'611.2
2017-Apr-22 06:00N 53°38' W 000°11'612.3
2017-Apr-22 05:30N 53°36' W 000°02'3915.7
2017-Apr-22 02:59N 53°20' E 000°59'816.3
2017-Apr-22 02:30N 53°14' E 001°08'816.5
2017-Apr-22 02:01N 53°08' E 001°17'817.0
2017-Apr-22 01:31N 53°02' E 001°26'917.5
2017-Apr-22 01:00N 52°55' E 001°36'918.4
2017-Apr-22 00:31N 52°50' E 001°49'918.9
2017-Apr-22 00:00N 52°45' E 002°02'6418.2
2017-Apr-21 20:30N 52°10' E 003°29'918.1
2017-Apr-21 20:01N 52°06' E 003°42'918.2
2017-Apr-21 19:30N 52°03' E 003°56'816.0
2017-Apr-21 19:01N 51°58' E 004°07'2 3.5
2017-Apr-21 18:29N 51°57' E 004°08'0 0.0
2017-Apr-21 18:00N 51°57' E 004°08'0 0.0
2017-Apr-21 17:29N 51°57' E 004°08'0 0.0
2017-Apr-21 16:59N 51°57' E 004°08'0 0.0
2017-Apr-21 16:29N 51°57' E 004°08'0 0.0
2017-Apr-21 15:58N 51°57' E 004°08'0 0.0
2017-Apr-21 15:28N 51°57' E 004°08'0 0.0
2017-Apr-21 14:55N 51°57' E 004°08'0 0.0
2017-Apr-21 14:28N 51°57' E 004°08'0 0.0
2017-Apr-21 13:30N 51°57' E 004°08'0 0.0
2017-Apr-21 13:00N 51°57' E 004°08'0 0.0
2017-Apr-21 12:30N 51°57' E 004°08'0 0.0
2017-Apr-21 12:00N 51°57' E 004°08'0 0.0
2017-Apr-21 11:30N 51°57' E 004°08'0 0.0
2017-Apr-21 11:00N 51°57' E 004°08'0 0.0
2017-Apr-21 10:29N 51°57' E 004°08'0 0.0
2017-Apr-21 09:59N 51°57' E 004°08'0 0.0
2017-Apr-21 09:29N 51°57' E 004°08'0 0.0
2017-Apr-21 08:58N 51°57' E 004°08'0 0.0
2017-Apr-21 08:29N 51°57' E 004°08'0 0.0
2017-Apr-21 07:58N 51°57' E 004°08'0 0.0
2017-Apr-21 07:28N 51°57' E 004°08'0 0.0
2017-Apr-21 06:58N 51°57' E 004°08'0 0.0
2017-Apr-21 06:31N 51°57' E 004°08'3 5.8
2017-Apr-21 06:01N 51°59' E 004°05'917.2
2017-Apr-21 05:31N 52°01' E 003°51'917.5
2017-Apr-21 05:00N 52°04' E 003°38'6719.1
2017-Apr-21 01:30N 52°42' E 002°07'1122.0
2017-Apr-21 01:00N 52°48' E 001°52'1020.9
2017-Apr-21 00:30N 52°54' E 001°38'918.1
2017-Apr-21 00:00N 52°58' E 001°24'917.8
2017-Apr-20 23:30N 53°01' E 001°10'4417.4
2017-Apr-20 20:59N 53°31' E 000°17'816.5
2017-Apr-20 20:31N 53°34' E 000°05'815.7
2017-Apr-20 20:00N 53°37' W 000°07'612.4
2017-Apr-20 19:30N 53°42' W 000°14'3 5.2
2017-Apr-20 18:58N 53°44' W 000°17'0 0.0
2017-Apr-20 18:28N 53°44' W 000°17'0 0.0
2017-Apr-20 18:00N 53°44' W 000°17'0 0.0
2017-Apr-20 17:30N 53°44' W 000°17'0 0.0
2017-Apr-20 17:00N 53°44' W 000°17'0 0.0
2017-Apr-20 16:30N 53°44' W 000°17'0 0.0
2017-Apr-20 15:59N 53°44' W 000°17'0 0.0
2017-Apr-20 15:29N 53°44' W 000°17'0 0.0
2017-Apr-20 14:59N 53°44' W 000°17'  
Track history (hours):
 
Tides and Currents Weather Stations Pressure Air Temp Water Temp Dewpoint Dewpoint Depression Visibility Wind Speed Wind Dir Waves Ship Positions

Pride Of Rotterdam

Operator: P&O Ferries

Last reported at 2017-Apr-30 14:29 UTC. Time now 2017-Apr-30 14:49 UTC.
Position N 53°44' W 000°17'.

Length 215 m; draft 5.8 m.

Type: Ship. MMSI: 244980000.

Date/timePositionNaut miles runAvg speedWind from/ knotsBaromVisibWave heightAir tempDewpointWater temp
2017-Apr-30 14:29N 53°44' W 000°17'0 0.0
2017-Apr-30 13:29N 53°44' W 000°17'0 0.0
2017-Apr-30 12:58N 53°44' W 000°17'0 0.0
2017-Apr-30 12:28N 53°44' W 000°17'0 0.0
2017-Apr-30 11:58N 53°44' W 000°17'0 0.0
2017-Apr-30 11:28N 53°44' W 000°17'0 0.0
2017-Apr-30 11:01N 53°44' W 000°17'0 0.0
2017-Apr-30 10:30N 53°44' W 000°17'0 0.0
2017-Apr-30 10:00N 53°44' W 000°17'0 0.0
2017-Apr-30 09:30N 53°44' W 000°17'0 0.0
2017-Apr-30 09:00N 53°44' W 000°17'0 0.0
2017-Apr-30 08:29N 53°44' W 000°17'0 0.0
2017-Apr-30 07:59N 53°44' W 000°17'0 0.0
2017-Apr-30 07:29N 53°44' W 000°17'0 0.0
2017-Apr-30 06:59N 53°44' W 000°17'0 0.0
2017-Apr-30 06:30N 53°44' W 000°17'3 6.7
2017-Apr-30 06:00N 53°42' W 000°14'815.2
2017-Apr-30 05:30N 53°36' W 000°04'917.3
2017-Apr-30 05:00N 53°33' E 000°09'2716.3
2017-Apr-30 03:21N 53°23' E 000°51'618.2
2017-Apr-30 03:00N 53°20' E 001°00'918.4
2017-Apr-30 02:30N 53°14' E 001°12'917.7
2017-Apr-30 02:00N 53°06' E 001°20'917.3
2017-Apr-30 01:30N 52°60' E 001°30'816.9
2017-Apr-30 01:00N 52°54' E 001°39'816.1
2017-Apr-30 00:30N 52°49' E 001°51'715.0
2017-Apr-30 00:00N 52°45' E 002°01'714.7
2017-Apr-29 23:30N 52°41' E 002°11'5915.4
2017-Apr-29 19:42N 52°09' E 003°31'316.0
2017-Apr-29 19:30N 52°07' E 003°35'713.9
2017-Apr-29 19:01N 52°04' E 003°46'713.3
2017-Apr-29 18:30N 52°02' E 003°56'815.6
2017-Apr-29 18:00N 51°58' E 004°07'2 3.1
2017-Apr-29 17:30N 51°57' E 004°08'0 0.0
2017-Apr-29 16:57N 51°57' E 004°08'0 0.0
2017-Apr-29 16:21N 51°57' E 004°08'0 0.0
2017-Apr-29 15:57N 51°57' E 004°08'0 0.0
2017-Apr-29 15:26N 51°57' E 004°08'0 0.0
2017-Apr-29 15:00N 51°57' E 004°08'0 0.0
2017-Apr-29 13:59N 51°57' E 004°08'0 0.0
2017-Apr-29 13:29N 51°57' E 004°08'0 0.0
2017-Apr-29 12:55N 51°57' E 004°08'0 0.0
2017-Apr-29 12:28N 51°57' E 004°08'0 0.0
2017-Apr-29 12:00N 51°57' E 004°08'0 0.0
2017-Apr-29 11:30N 51°57' E 004°08'0 0.0
2017-Apr-29 11:00N 51°57' E 004°08'0 0.0
2017-Apr-29 10:28N 51°57' E 004°08'0 0.0
2017-Apr-29 10:00N 51°57' E 004°08'0 0.0
2017-Apr-29 09:27N 51°57' E 004°08'0 0.0
2017-Apr-29 08:59N 51°57' E 004°08'0 0.0
2017-Apr-29 08:29N 51°57' E 004°08'0 0.0
2017-Apr-29 07:59N 51°57' E 004°08'0 0.0
2017-Apr-29 07:28N 51°57' E 004°08'0 0.0
2017-Apr-29 07:01N 51°57' E 004°08'4 7.3
2017-Apr-29 06:30N 51°59' E 004°03'918.0
2017-Apr-29 06:00N 52°02' E 003°49'917.7
2017-Apr-29 05:30N 52°05' E 003°36'2617.4
2017-Apr-29 03:59N 52°22' E 003°02'3617.9
2017-Apr-29 01:58N 52°44' E 002°16'918.7
2017-Apr-29 01:30N 52°50' E 002°06'918.6
2017-Apr-29 01:00N 52°56' E 001°54'918.9
2017-Apr-29 00:30N 53°01' E 001°40'1019.1
2017-Apr-29 00:00N 53°07' E 001°28'1019.2
2017-Apr-28 23:28N 53°13' E 001°15'919.2
2017-Apr-28 23:00N 53°19' E 001°02'3418.0
2017-Apr-28 21:06N 53°33' E 000°10'520.5
2017-Apr-28 20:52N 53°35' E 000°03'719.5
2017-Apr-28 20:30N 53°38' W 000°08'815.2
2017-Apr-28 20:00N 53°44' W 000°16'1 1.8
2017-Apr-28 19:30N 53°44' W 000°17'0 0.0
2017-Apr-28 19:00N 53°44' W 000°17'0 0.0
2017-Apr-28 18:29N 53°44' W 000°17'0 0.0
2017-Apr-28 17:59N 53°44' W 000°17'0 0.0
2017-Apr-28 17:29N 53°44' W 000°17'0 0.0
2017-Apr-28 16:59N 53°44' W 000°17'0 0.0
2017-Apr-28 16:28N 53°44' W 000°17'0 0.0
2017-Apr-28 15:58N 53°44' W 000°17'0 0.0
2017-Apr-28 15:28N 53°44' W 000°17'0 0.0
2017-Apr-28 14:58N 53°44' W 000°17'0 0.0
2017-Apr-28 14:00N 53°44' W 000°17'0 0.0
2017-Apr-28 13:30N 53°44' W 000°17'0 0.0
2017-Apr-28 13:00N 53°44' W 000°17'0 0.0
2017-Apr-28 12:30N 53°44' W 000°17'0 0.0
2017-Apr-28 12:00N 53°44' W 000°17'0 0.0
2017-Apr-28 11:29N 53°44' W 000°17'0 0.0
2017-Apr-28 10:59N 53°44' W 000°17'0 0.0
2017-Apr-28 10:29N 53°44' W 000°17'0 0.0
2017-Apr-28 09:59N 53°44' W 000°17'0 0.0
2017-Apr-28 09:29N 53°44' W 000°17'0 0.0
2017-Apr-28 08:58N 53°44' W 000°17'0 0.0
2017-Apr-28 08:28N 53°44' W 000°17'0 0.0
2017-Apr-28 07:55N 53°44' W 000°17'0 0.0
2017-Apr-28 07:28N 53°44' W 000°17'0 0.0
2017-Apr-28 07:00N 53°44' W 000°17'0 0.0
2017-Apr-28 06:30N 53°44' W 000°17'0 0.0
2017-Apr-28 06:00N 53°44' W 000°17'2 3.7
2017-Apr-28 05:30N 53°43' W 000°15'816.3
2017-Apr-28 05:00N 53°37' W 000°06'3916.7
2017-Apr-28 02:41N 53°22' E 000°54'317.3
2017-Apr-28 02:30N 53°20' E 000°59'917.4
2017-Apr-28 02:00N 53°14' E 001°09'1019.3
2017-Apr-28 01:30N 53°06' E 001°19'1020.8
2017-Apr-28 01:00N 52°59' E 001°31'1020.8
2017-Apr-28 00:30N 52°52' E 001°44'1019.9
2017-Apr-28 00:00N 52°47' E 001°58'918.9
2017-Apr-27 23:30N 52°42' E 002°11'6218.5
2017-Apr-27 20:09N 52°07' E 003°36'318.5
2017-Apr-27 20:00N 52°06' E 003°40'918.6
2017-Apr-27 19:30N 52°04' E 003°54'815.4
2017-Apr-27 19:00N 51°59' E 004°04'3 6.5
2017-Apr-27 18:31N 51°57' E 004°08'0 0.2
2017-Apr-27 17:59N 51°57' E 004°08'0 0.0
2017-Apr-27 17:29N 51°57' E 004°08'0 0.0
2017-Apr-27 16:59N 51°57' E 004°08'0 0.0
2017-Apr-27 16:28N 51°57' E 004°08'0 0.0
2017-Apr-27 15:55N 51°57' E 004°08'0 0.0
2017-Apr-27 15:28N 51°57' E 004°08'0 0.0
2017-Apr-27 14:55N 51°57' E 004°08'0 0.0
2017-Apr-27 14:00N 51°57' E 004°08'0 0.0
2017-Apr-27 13:30N 51°57' E 004°08'0 0.0
2017-Apr-27 12:57N 51°57' E 004°08'0 0.0
2017-Apr-27 12:30N 51°57' E 004°08'0 0.0
2017-Apr-27 11:59N 51°57' E 004°08'0 0.0
2017-Apr-27 11:30N 51°57' E 004°08'0 0.0
2017-Apr-27 10:59N 51°57' E 004°08'0 0.0
2017-Apr-27 10:29N 51°57' E 004°08'0 0.0
2017-Apr-27 09:59N 51°57' E 004°08'0 0.0
2017-Apr-27 09:28N 51°57' E 004°08'0 0.0
2017-Apr-27 08:59N 51°57' E 004°08'0 0.0
2017-Apr-27 08:28N 51°57' E 004°08'0 0.0
2017-Apr-27 07:58N 51°57' E 004°08'0 0.0
2017-Apr-27 07:31N 51°57' E 004°08'0 0.0
2017-Apr-27 07:00N 51°57' E 004°08'0 0.0
2017-Apr-27 06:30N 51°57' E 004°08'3 6.1
2017-Apr-27 06:00N 51°59' E 004°04'714.8
2017-Apr-27 05:30N 52°01' E 003°53'1019.0
2017-Apr-27 05:00N 52°05' E 003°39'6818.4
2017-Apr-27 01:20N 52°46' E 002°11'617.1
2017-Apr-27 01:00N 52°50' E 002°05'816.9
2017-Apr-27 00:30N 52°55' E 001°54'917.1
2017-Apr-27 00:00N 53°00' E 001°42'917.7
2017-Apr-26 23:30N 53°06' E 001°30'917.6
2017-Apr-26 23:01N 53°11' E 001°19'1017.6
2017-Apr-26 22:28N 53°17' E 001°06'3517.5
2017-Apr-26 20:28N 53°33' E 000°14'1020.4
2017-Apr-26 20:00N 53°36' W 000°02'918.9
2017-Apr-26 19:30N 53°42' W 000°14'3 6.2
2017-Apr-26 18:58N 53°44' W 000°17'0 0.0
2017-Apr-26 18:31N 53°44' W 000°17'0 0.0
2017-Apr-26 18:00N 53°44' W 000°17'0 0.0
2017-Apr-26 17:30N 53°44' W 000°17'0 0.0
2017-Apr-26 17:00N 53°44' W 000°17'0 0.0
2017-Apr-26 16:30N 53°44' W 000°17'0 0.0
2017-Apr-26 15:59N 53°44' W 000°17'0 0.0
2017-Apr-26 15:29N 53°44' W 000°17'0 0.0
2017-Apr-26 14:59N 53°44' W 000°17'0 0.0
2017-Apr-26 14:29N 53°44' W 000°17'0 0.0
2017-Apr-26 13:28N 53°44' W 000°17'0 0.0
2017-Apr-26 12:58N 53°44' W 000°17'0 0.0
2017-Apr-26 12:28N 53°44' W 000°17'0 0.0
2017-Apr-26 11:58N 53°44' W 000°17'0 0.0
2017-Apr-26 11:30N 53°44' W 000°17'0 0.0
2017-Apr-26 11:00N 53°44' W 000°17'0 0.0
2017-Apr-26 10:30N 53°44' W 000°17'0 0.0
2017-Apr-26 10:00N 53°44' W 000°17'0 0.0
2017-Apr-26 09:30N 53°44' W 000°17'0 0.0
2017-Apr-26 08:59N 53°44' W 000°17'0 0.0
2017-Apr-26 08:29N 53°44' W 000°17'0 0.0
2017-Apr-26 07:59N 53°44' W 000°17'0 0.0
2017-Apr-26 07:29N 53°44' W 000°17'0 0.0
2017-Apr-26 06:59N 53°44' W 000°17'0 0.0
2017-Apr-26 06:28N 53°44' W 000°17'0 0.0
2017-Apr-26 06:01N 53°44' W 000°17'3 6.0
2017-Apr-26 05:30N 53°42' W 000°14'917.7
2017-Apr-26 05:00N 53°36' W 000°03'3917.2
2017-Apr-26 02:45N 53°21' E 000°57'717.2
2017-Apr-26 02:20N 53°16' E 001°06'617.9
2017-Apr-26 02:00N 53°11' E 001°12'1019.5
2017-Apr-26 01:30N 53°04' E 001°22'1020.8
2017-Apr-26 01:00N 52°57' E 001°35'1020.7
2017-Apr-26 00:30N 52°50' E 001°48'1121.1
2017-Apr-26 00:00N 52°44' E 002°03'6919.1
2017-Apr-25 20:23N 52°06' E 003°38'718.4
2017-Apr-25 20:01N 52°05' E 003°49'918.2
2017-Apr-25 19:31N 51°60' E 004°01'5 9.6
2017-Apr-25 18:59N 51°57' E 004°08'0 0.3
2017-Apr-25 18:28N 51°57' E 004°08'0 0.0
2017-Apr-25 17:58N 51°57' E 004°08'0 0.0
2017-Apr-25 17:28N 51°57' E 004°08'0 0.0
2017-Apr-25 16:58N 51°57' E 004°08'0 0.0
2017-Apr-25 16:28N 51°57' E 004°08'0 0.0
2017-Apr-25 16:00N 51°57' E 004°08'0 0.0
2017-Apr-25 15:30N 51°57' E 004°08'0 0.0
2017-Apr-25 15:00N 51°57' E 004°08'0 0.0
2017-Apr-25 14:30N 51°57' E 004°08'0 0.0
2017-Apr-25 13:29N 51°57' E 004°08'0 0.0
2017-Apr-25 12:59N 51°57' E 004°08'0 0.0
2017-Apr-25 12:29N 51°57' E 004°08'0 0.0
2017-Apr-25 11:59N 51°57' E 004°08'0 0.0
2017-Apr-25 11:28N 51°57' E 004°08'0 0.0
2017-Apr-25 10:58N 51°57' E 004°08'0 0.0
2017-Apr-25 10:28N 51°57' E 004°08'0 0.0
2017-Apr-25 10:01N 51°57' E 004°08'0 0.0
2017-Apr-25 09:30N 51°57' E 004°08'0 0.0
2017-Apr-25 09:00N 51°57' E 004°08'0 0.0
2017-Apr-25 08:30N 51°57' E 004°08'0 0.0
2017-Apr-25 08:00N 51°57' E 004°08'0 0.0
2017-Apr-25 07:29N 51°57' E 004°08'0 0.0
2017-Apr-25 07:00N 51°57' E 004°08'0 0.0
2017-Apr-25 06:29N 51°57' E 004°08'2 4.5
2017-Apr-25 06:00N 51°58' E 004°06'917.5
2017-Apr-25 05:30N 52°01' E 003°52'1120.4
2017-Apr-25 04:59N 52°05' E 003°36'6519.4
2017-Apr-25 01:39N 52°45' E 002°13'318.0
2017-Apr-25 01:30N 52°47' E 002°10'917.9
2017-Apr-25 01:00N 52°53' E 001°59'917.7
2017-Apr-25 00:30N 52°58' E 001°47'918.0
2017-Apr-25 00:00N 53°03' E 001°34'918.0
2017-Apr-24 23:30N 53°08' E 001°22'917.5
2017-Apr-24 23:00N 53°14' E 001°11'3916.6
2017-Apr-24 20:39N 53°33' E 000°14'318.1
2017-Apr-24 20:30N 53°33' E 000°09'919.0
2017-Apr-24 20:00N 53°37' W 000°05'714.0
2017-Apr-24 19:30N 53°41' W 000°14'3 6.7
2017-Apr-24 19:00N 53°44' W 000°17'0 0.0
2017-Apr-24 18:29N 53°44' W 000°17'0 0.0
2017-Apr-24 17:59N 53°44' W 000°17'0 0.0
2017-Apr-24 17:29N 53°44' W 000°17'0 0.0
2017-Apr-24 16:59N 53°44' W 000°17'0 0.0
2017-Apr-24 16:29N 53°44' W 000°17'0 0.0
2017-Apr-24 15:58N 53°44' W 000°17'0 0.0
2017-Apr-24 15:28N 53°44' W 000°17'0 0.0
2017-Apr-24 14:58N 53°44' W 000°17'0 0.0
2017-Apr-24 14:28N 53°44' W 000°17'0 0.0
2017-Apr-24 13:30N 53°44' W 000°17'0 0.0
2017-Apr-24 13:00N 53°44' W 000°17'0 0.0
2017-Apr-24 12:30N 53°44' W 000°17'0 0.0
2017-Apr-24 12:00N 53°44' W 000°17'0 0.0
2017-Apr-24 11:29N 53°44' W 000°17'0 0.0
2017-Apr-24 10:59N 53°44' W 000°17'0 0.0
2017-Apr-24 10:26N 53°44' W 000°17'0 0.0
2017-Apr-24 09:59N 53°44' W 000°17'0 0.0
2017-Apr-24 09:28N 53°44' W 000°17'0 0.0
2017-Apr-24 08:58N 53°44' W 000°17'0 0.0
2017-Apr-24 08:28N 53°44' W 000°17'0 0.0
2017-Apr-24 07:58N 53°44' W 000°17'0 0.0
2017-Apr-24 07:28N 53°44' W 000°17'0 0.0
2017-Apr-24 07:00N 53°44' W 000°17'0 0.0
2017-Apr-24 06:30N 53°44' W 000°17'0 0.0
2017-Apr-24 06:00N 53°44' W 000°17'2 3.1
2017-Apr-24 05:30N 53°43' W 000°15'713.6
2017-Apr-24 05:00N 53°38' W 000°08'4016.7
2017-Apr-24 02:37N 53°22' E 000°53'416.8
2017-Apr-24 02:23N 53°20' E 000°59'716.4
2017-Apr-24 01:59N 53°17' E 001°08'817.3
2017-Apr-24 01:30N 53°10' E 001°16'918.0
2017-Apr-24 01:01N 53°02' E 001°24'918.3
2017-Apr-24 00:30N 52°56' E 001°36'1019.2
2017-Apr-24 00:01N 52°50' E 001°48'918.7
2017-Apr-23 23:31N 52°46' E 002°02'918.3
2017-Apr-23 23:00N 52°41' E 002°14'4117.4
2017-Apr-23 20:38N 52°17' E 003°11'217.1
2017-Apr-23 20:30N 52°16' E 003°14'917.3
2017-Apr-23 20:00N 52°11' E 003°25'917.5
2017-Apr-23 19:30N 52°07' E 003°38'917.5
2017-Apr-23 19:00N 52°04' E 003°51'918.5
2017-Apr-23 18:30N 51°59' E 004°04'4 7.0
2017-Apr-23 18:00N 51°57' E 004°08'0 0.0
2017-Apr-23 17:30N 51°57' E 004°08'0 0.0
2017-Apr-23 17:00N 51°57' E 004°08'0 0.0
2017-Apr-23 16:29N 51°57' E 004°08'0 0.0
2017-Apr-23 16:00N 51°57' E 004°08'0 0.0
2017-Apr-23 15:29N 51°57' E 004°08'0 0.0
2017-Apr-23 14:59N 51°57' E 004°08'0 0.0
2017-Apr-23 13:55N 51°57' E 004°08'0 0.0
2017-Apr-23 13:29N 51°57' E 004°08'0 0.0
2017-Apr-23 12:58N 51°57' E 004°08'0 0.0
2017-Apr-23 12:25N 51°57' E 004°08'0 0.0
2017-Apr-23 12:00N 51°57' E 004°08'0 0.0
2017-Apr-23 11:30N 51°57' E 004°08'0 0.0
2017-Apr-23 10:57N 51°57' E 004°08'0 0.0
2017-Apr-23 10:27N 51°57' E 004°08'0 0.0
2017-Apr-23 10:00N 51°57' E 004°08'0 0.0
2017-Apr-23 09:29N 51°57' E 004°08'0 0.0
2017-Apr-23 09:00N 51°57' E 004°08'0 0.0
2017-Apr-23 08:29N 51°57' E 004°08'0 0.0
2017-Apr-23 07:59N 51°57' E 004°08'0 0.0
2017-Apr-23 07:29N 51°57' E 004°08'0 0.0
2017-Apr-23 07:00N 51°57' E 004°08'3 6.4
2017-Apr-23 06:31N 51°59' E 004°04'917.3
2017-Apr-23 06:01N 52°01' E 003°51'917.8
2017-Apr-23 05:30N 52°05' E 003°37'6317.7
2017-Apr-23 01:55N 52°44' E 002°16'716.7
2017-Apr-23 01:30N 52°49' E 002°07'816.3
2017-Apr-23 01:01N 52°54' E 001°57'816.2
2017-Apr-23 00:31N 52°58' E 001°46'816.0
2017-Apr-23 00:01N 53°03' E 001°35'815.9
2017-Apr-22 23:29N 53°09' E 001°25'815.8
2017-Apr-22 23:00N 53°13' E 001°15'4115.2
2017-Apr-22 20:20N 53°33' E 000°15'816.4
2017-Apr-22 19:50N 53°35' E 000°02'616.7
2017-Apr-22 19:30N 53°37' W 000°07'612.2
2017-Apr-22 19:00N 53°42' W 000°14'3 6.3
2017-Apr-22 18:30N 53°44' W 000°17'0 0.0
2017-Apr-22 18:00N 53°44' W 000°17'0 0.0
2017-Apr-22 17:30N 53°44' W 000°17'0 0.0
2017-Apr-22 16:59N 53°44' W 000°17'0 0.0
2017-Apr-22 16:29N 53°44' W 000°17'0 0.0
2017-Apr-22 15:59N 53°44' W 000°17'0 0.0
2017-Apr-22 15:29N 53°44' W 000°17'0 0.0
2017-Apr-22 14:59N 53°44' W 000°17'0 0.0
2017-Apr-22 14:28N 53°44' W 000°17'0 0.0
2017-Apr-22 13:28N 53°44' W 000°17'0 0.0
2017-Apr-22 12:58N 53°44' W 000°17'0 0.0
2017-Apr-22 12:30N 53°44' W 000°17'0 0.0
2017-Apr-22 12:00N 53°44' W 000°17'0 0.0
2017-Apr-22 11:30N 53°44' W 000°17'0 0.0
2017-Apr-22 11:00N 53°44' W 000°17'0 0.0
2017-Apr-22 10:30N 53°44' W 000°17'0 0.0
2017-Apr-22 09:59N 53°44' W 000°17'0 0.0
2017-Apr-22 09:29N 53°44' W 000°17'0 0.0
2017-Apr-22 08:59N 53°44' W 000°17'0 0.0
2017-Apr-22 08:29N 53°44' W 000°17'0 0.0
2017-Apr-22 07:59N 53°44' W 000°17'0 0.0
2017-Apr-22 07:28N 53°44' W 000°17'0 0.0
2017-Apr-22 07:01N 53°44' W 000°17'1 2.5
2017-Apr-22 06:30N 53°44' W 000°15'611.2
2017-Apr-22 06:00N 53°38' W 000°11'612.3
2017-Apr-22 05:30N 53°36' W 000°02'3915.7
2017-Apr-22 02:59N 53°20' E 000°59'816.3
2017-Apr-22 02:30N 53°14' E 001°08'816.5
2017-Apr-22 02:01N 53°08' E 001°17'817.0
2017-Apr-22 01:31N 53°02' E 001°26'917.5
2017-Apr-22 01:00N 52°55' E 001°36'918.4
2017-Apr-22 00:31N 52°50' E 001°49'918.9
2017-Apr-22 00:00N 52°45' E 002°02'6418.2
2017-Apr-21 20:30N 52°10' E 003°29'918.1
2017-Apr-21 20:01N 52°06' E 003°42'918.2
2017-Apr-21 19:30N 52°03' E 003°56'816.0
2017-Apr-21 19:01N 51°58' E 004°07'2 3.5
2017-Apr-21 18:29N 51°57' E 004°08'0 0.0
2017-Apr-21 18:00N 51°57' E 004°08'0 0.0
2017-Apr-21 17:29N 51°57' E 004°08'0 0.0
2017-Apr-21 16:59N 51°57' E 004°08'0 0.0
2017-Apr-21 16:29N 51°57' E 004°08'0 0.0
2017-Apr-21 15:58N 51°57' E 004°08'0 0.0
2017-Apr-21 15:28N 51°57' E 004°08'0 0.0
2017-Apr-21 14:55N 51°57' E 004°08'0 0.0
2017-Apr-21 14:28N 51°57' E 004°08'0 0.0
2017-Apr-21 13:30N 51°57' E 004°08'0 0.0
2017-Apr-21 13:00N 51°57' E 004°08'0 0.0
2017-Apr-21 12:30N 51°57' E 004°08'0 0.0
2017-Apr-21 12:00N 51°57' E 004°08'0 0.0
2017-Apr-21 11:30N 51°57' E 004°08'0 0.0
2017-Apr-21 11:00N 51°57' E 004°08'0 0.0
2017-Apr-21 10:29N 51°57' E 004°08'0 0.0
2017-Apr-21 09:59N 51°57' E 004°08'0 0.0
2017-Apr-21 09:29N 51°57' E 004°08'0 0.0
2017-Apr-21 08:58N 51°57' E 004°08'0 0.0
2017-Apr-21 08:29N 51°57' E 004°08'0 0.0
2017-Apr-21 07:58N 51°57' E 004°08'0 0.0
2017-Apr-21 07:28N 51°57' E 004°08'0 0.0
2017-Apr-21 06:58N 51°57' E 004°08'0 0.0
2017-Apr-21 06:31N 51°57' E 004°08'3 5.8
2017-Apr-21 06:01N 51°59' E 004°05'917.2
2017-Apr-21 05:31N 52°01' E 003°51'917.5
2017-Apr-21 05:00N 52°04' E 003°38'6719.1
2017-Apr-21 01:30N 52°42' E 002°07'1122.0
2017-Apr-21 01:00N 52°48' E 001°52'1020.9
2017-Apr-21 00:30N 52°54' E 001°38'918.1
2017-Apr-21 00:00N 52°58' E 001°24'917.8
2017-Apr-20 23:30N 53°01' E 001°10'4417.4
2017-Apr-20 20:59N 53°31' E 000°17'816.5
2017-Apr-20 20:31N 53°34' E 000°05'815.7
2017-Apr-20 20:00N 53°37' W 000°07'612.4
2017-Apr-20 19:30N 53°42' W 000°14'3 5.2
2017-Apr-20 18:58N 53°44' W 000°17'0 0.0
2017-Apr-20 18:28N 53°44' W 000°17'0 0.0
2017-Apr-20 18:00N 53°44' W 000°17'0 0.0
2017-Apr-20 17:30N 53°44' W 000°17'0 0.0
2017-Apr-20 17:00N 53°44' W 000°17'0 0.0
2017-Apr-20 16:30N 53°44' W 000°17'0 0.0
2017-Apr-20 15:59N 53°44' W 000°17'0 0.0
2017-Apr-20 15:29N 53°44' W 000°17'0 0.0
2017-Apr-20 14:59N 53°44' W 000°17'  

Dump ship's entire track history